Time;durP1;ratioP1;P1;durP2;ratioP2;P2;SDS_P1;SDS_P2;PMS_P1;PMS_P2;Temp;Humidity;BMP_temperature;BMP_pressure;BME280_temperature;BME280_humidity;BME280_pressure;Samples;Min_cycle;Max_cycle;Signal;HPM_P1;HPM_P2
2023/10/27 00:00:08;;;;;;;6.90;2.00;;;12.40;99.90;;;;;;5058544;28;21107;-65
2023/10/27 00:02:38;;;;;;;7.10;2.70;;;12.50;99.90;;;;;;5063859;28;20522;-65
2023/10/27 00:05:07;;;;;;;6.27;2.83;;;12.50;99.90;;;;;;5051718;28;20507;-66
2023/10/27 00:07:33;;;;;;;8.83;3.70;;;12.50;99.90;;;;;;5047630;27;20486;-66
2023/10/27 00:10:00;;;;;;;15.80;3.70;;;12.40;99.90;;;;;;5066094;28;20473;-66
2023/10/27 00:12:28;;;;;;;8.67;2.83;;;12.30;99.90;;;;;;5057594;28;20928;-65
2023/10/27 00:14:55;;;;;;;8.80;2.50;;;12.30;99.90;;;;;;5053533;28;20506;-65
2023/10/27 00:17:23;;;;;;;9.03;4.07;;;12.20;99.90;;;;;;5050320;28;20494;-65
2023/10/27 00:19:51;;;;;;;5.27;2.13;;;12.10;99.90;;;;;;5052697;28;20482;-65
2023/10/27 00:22:19;;;;;;;6.60;2.90;;;12.00;99.90;;;;;;5047584;28;20475;-65
2023/10/27 00:24:47;;;;;;;8.83;3.20;;;11.90;99.90;;;;;;5047263;28;20485;-65
2023/10/27 00:27:15;;;;;;;4.77;2.90;;;11.90;99.90;;;;;;5053597;28;20514;-65
2023/10/27 00:29:43;;;;;;;5.40;3.33;;;11.90;99.90;;;;;;5066699;28;20871;-65
2023/10/27 00:32:11;;;;;;;6.57;3.57;;;12.00;99.90;;;;;;5052950;28;20483;-65
2023/10/27 00:34:41;;;;;;;6.80;3.20;;;12.10;99.90;;;;;;5052214;28;21136;-65
2023/10/27 00:37:09;;;;;;;26.60;3.90;;;12.20;99.90;;;;;;5050066;28;20494;-66
2023/10/27 00:39:38;;;;;;;8.20;2.43;;;12.30;99.90;;;;;;5051572;28;20894;-65
2023/10/27 00:42:07;;;;;;;17.40;3.27;;;12.40;99.90;;;;;;5072576;28;20479;-66
2023/10/27 00:44:35;;;;;;;10.80;3.50;;;12.40;99.90;;;;;;5052002;28;20540;-65
2023/10/27 00:47:03;;;;;;;2.73;2.27;;;12.50;99.90;;;;;;5053601;28;20474;-65
2023/10/27 00:49:31;;;;;;;10.60;2.67;;;12.50;99.90;;;;;;5043258;28;20589;-64
2023/10/27 00:52:01;;;;;;;9.43;2.90;;;12.60;99.90;;;;;;5081125;28;21015;-63
2023/10/27 00:54:30;;;;;;;14.93;2.70;;;12.60;99.90;;;;;;5054161;28;21033;-64
2023/10/27 00:56:58;;;;;;;6.17;3.10;;;12.50;99.90;;;;;;5067929;28;21166;-63
2023/10/27 00:59:26;;;;;;;6.83;3.00;;;12.40;99.90;;;;;;5059066;28;20495;-64
2023/10/27 01:01:54;;;;;;;6.63;2.30;;;12.20;99.90;;;;;;5054855;28;20890;-63
2023/10/27 01:04:23;;;;;;;4.33;2.33;;;12.20;99.90;;;;;;5055009;28;20894;-64
2023/10/27 01:06:51;;;;;;;4.50;2.27;;;12.00;99.90;;;;;;5055610;28;20471;-64
2023/10/27 01:09:21;;;;;;;7.07;3.40;;;12.00;99.90;;;;;;5078653;28;20469;-65
2023/10/27 01:11:50;;;;;;;18.33;3.80;;;11.90;99.90;;;;;;5053796;28;20474;-65
2023/10/27 01:14:19;;;;;;;11.20;2.60;;;11.90;99.90;;;;;;5056831;28;20483;-65
2023/10/27 01:16:46;;;;;;;7.83;2.77;;;11.90;99.90;;;;;;5070653;28;20510;-65
2023/10/27 01:19:15;;;;;;;8.63;2.43;;;11.90;99.90;;;;;;5057675;28;20606;-65
2023/10/27 01:21:43;;;;;;;6.87;2.67;;;11.90;99.90;;;;;;5057506;28;20517;-64
2023/10/27 01:24:13;;;;;;;5.03;2.40;;;11.90;99.90;;;;;;5058395;28;20497;-64
2023/10/27 01:26:41;;;;;;;6.73;2.77;;;11.90;99.90;;;;;;5054323;28;20949;-65
2023/10/27 01:29:08;;;;;;;8.13;2.60;;;12.00;99.90;;;;;;5089973;28;20475;-65
2023/10/27 01:31:35;;;;;;;12.20;3.00;;;11.90;99.90;;;;;;5062388;28;20487;-65
2023/10/27 01:34:02;;;;;;;8.90;2.63;;;11.90;99.90;;;;;;5063674;28;20494;-65
2023/10/27 01:36:28;;;;;;;3.20;1.67;;;11.90;99.90;;;;;;5063093;28;20569;-65
2023/10/27 01:38:55;;;;;;;5.40;2.17;;;12.00;99.90;;;;;;5060075;28;20883;-65
2023/10/27 01:41:23;;;;;;;16.80;3.20;;;12.00;99.90;;;;;;5062414;28;20494;-65
2023/10/27 01:43:50;;;;;;;6.00;2.17;;;12.10;99.90;;;;;;5060099;28;20987;-65
2023/10/27 01:46:17;;;;;;;12.40;2.57;;;12.10;99.90;;;;;;5061775;28;20496;-65
2023/10/27 01:48:44;;;;;;;2.60;1.33;;;12.10;99.90;;;;;;5060266;28;20606;-65
2023/10/27 01:51:11;;;;;;;11.50;1.87;;;12.10;99.90;;;;;;5063071;28;20507;-65
2023/10/27 01:53:38;;;;;;;12.30;3.30;;;12.00;99.90;;;;;;5060248;28;20678;-65
2023/10/27 01:56:06;;;;;;;4.00;2.00;;;12.00;99.90;;;;;;5062936;28;20478;-65
2023/10/27 01:58:34;;;;;;;4.77;2.37;;;12.00;99.90;;;;;;5059962;28;20467;-64
2023/10/27 02:01:00;;;;;;;11.80;1.90;;;12.00;99.90;;;;;;5063777;28;20586;-63
2023/10/27 02:03:27;;;;;;;8.60;2.40;;;12.10;99.90;;;;;;5066902;28;20556;-62
2023/10/27 02:05:54;;;;;;;3.87;1.83;;;12.10;99.90;;;;;;5060889;28;20566;-63
2023/10/27 02:08:21;;;;;;;7.43;2.27;;;12.10;99.90;;;;;;5062962;28;21105;-62
2023/10/27 02:10:47;;;;;;;8.10;2.23;;;12.10;99.90;;;;;;5060644;28;20475;-62
2023/10/27 02:13:14;;;;;;;3.90;1.87;;;12.10;99.90;;;;;;5063831;28;20567;-62
2023/10/27 02:15:42;;;;;;;12.33;2.10;;;12.20;99.90;;;;;;5082503;28;20781;-63
2023/10/27 02:18:09;;;;;;;4.80;2.30;;;12.20;99.90;;;;;;5062007;28;20475;-63
2023/10/27 02:20:36;;;;;;;9.80;1.83;;;12.20;99.90;;;;;;5061371;28;20578;-65
2023/10/27 02:23:03;;;;;;;8.23;1.93;;;12.30;99.90;;;;;;5060293;28;20980;-66
2023/10/27 02:25:30;;;;;;;3.80;1.63;;;12.40;99.90;;;;;;5062121;28;20964;-65
2023/10/27 02:27:56;;;;;;;6.50;2.40;;;12.30;99.90;;;;;;5062384;28;20573;-66
2023/10/27 02:30:23;;;;;;;6.23;2.60;;;12.30;99.90;;;;;;5062630;28;20467;-65
2023/10/27 02:32:51;;;;;;;6.27;2.00;;;12.30;99.90;;;;;;5060043;28;21104;-65
2023/10/27 02:35:18;;;;;;;7.70;1.67;;;12.40;99.90;;;;;;5060764;28;20524;-66
2023/10/27 02:37:45;;;;;;;4.47;1.47;;;12.40;99.90;;;;;;5077516;28;20572;-65
2023/10/27 02:40:12;;;;;;;9.10;1.80;;;12.40;99.90;;;;;;5057013;28;20493;-65
2023/10/27 02:42:40;;;;;;;5.83;2.43;;;12.60;99.90;;;;;;5073452;28;21231;-65
2023/10/27 02:45:08;;;;;;;2.20;1.40;;;12.50;99.90;;;;;;5069465;28;20483;-64
2023/10/27 02:47:35;;;;;;;4.00;1.80;;;12.50;99.90;;;;;;5055624;28;20482;-65
2023/10/27 02:50:03;;;;;;;4.53;1.73;;;12.50;99.90;;;;;;5060137;28;20482;-65
2023/10/27 02:52:30;;;;;;;4.77;1.63;;;12.50;99.90;;;;;;5056206;28;20566;-65
2023/10/27 02:54:57;;;;;;;21.73;2.73;;;12.40;99.90;;;;;;5058942;28;20941;-65
2023/10/27 02:57:23;;;;;;;12.33;2.10;;;12.40;99.90;;;;;;5058836;28;20503;-65
2023/10/27 02:59:50;;;;;;;7.37;1.70;;;12.30;99.90;;;;;;5059035;28;20597;-65
2023/10/27 03:02:18;;;;;;;12.57;2.33;;;12.30;99.90;;;;;;5061242;28;21303;-65
2023/10/27 03:04:47;;;;;;;3.30;1.60;;;12.30;99.90;;;;;;5060834;28;20554;-65
2023/10/27 03:07:15;;;;;;;13.20;2.43;;;12.20;99.90;;;;;;5061877;28;20467;-65
2023/10/27 03:09:42;;;;;;;6.70;1.47;;;12.20;99.90;;;;;;5059712;28;20562;-62
2023/10/27 03:12:09;;;;;;;2.90;1.23;;;12.20;99.90;;;;;;5061688;28;20583;-62
2023/10/27 03:14:36;;;;;;;12.27;1.53;;;12.20;99.90;;;;;;5061125;28;20524;-62
2023/10/27 03:17:03;;;;;;;10.03;2.17;;;12.10;99.90;;;;;;5061274;28;20585;-62
2023/10/27 03:19:30;;;;;;;5.10;1.33;;;12.10;99.90;;;;;;5059923;28;21121;-62
2023/10/27 03:21:57;;;;;;;2.53;1.00;;;12.10;99.90;;;;;;5049119;28;20562;-62
2023/10/27 03:24:25;;;;;;;3.20;1.27;;;12.10;99.90;;;;;;5071050;28;20601;-62
2023/10/27 03:26:52;;;;;;;3.80;1.87;;;12.10;99.90;;;;;;5088253;28;20633;-62
2023/10/27 03:29:19;;;;;;;19.40;2.60;;;12.10;99.90;;;;;;5063966;28;21119;-62
2023/10/27 03:31:45;;;;;;;4.80;1.37;;;12.10;99.90;;;;;;5060459;28;20561;-61
2023/10/27 03:34:12;;;;;;;6.60;1.53;;;12.10;99.90;;;;;;5082190;28;20990;-62
2023/10/27 03:36:39;;;;;;;8.93;1.53;;;12.10;99.90;;;;;;5058701;28;20479;-63
2023/10/27 03:39:06;;;;;;;2.57;1.13;;;12.10;99.90;;;;;;5059179;28;20965;-63
2023/10/27 03:41:34;;;;;;;3.17;1.20;;;11.90;99.90;;;;;;5059451;28;20870;-62
2023/10/27 03:44:01;;;;;;;5.10;1.90;;;11.70;99.90;;;;;;5060472;28;20479;-62
2023/10/27 03:46:28;;;;;;;3.50;1.30;;;11.60;99.90;;;;;;5059816;28;21030;-62
2023/10/27 03:48:55;;;;;;;4.77;1.53;;;11.60;99.90;;;;;;5060187;28;21005;-63
2023/10/27 03:51:22;;;;;;;7.93;2.53;;;11.50;99.90;;;;;;5061175;28;20569;-63
2023/10/27 03:53:48;;;;;;;4.57;1.70;;;11.50;99.90;;;;;;5057515;28;20475;-62
2023/10/27 03:56:15;;;;;;;4.83;1.37;;;11.50;99.90;;;;;;5060956;28;20485;-62
2023/10/27 03:58:43;;;;;;;5.97;1.47;;;11.50;99.90;;;;;;5063808;28;20493;-62
2023/10/27 04:01:10;;;;;;;2.37;1.40;;;11.50;99.90;;;;;;5078976;28;20516;-62
2023/10/27 04:03:37;;;;;;;20.23;2.73;;;11.50;99.90;;;;;;5051290;28;21198;-62
2023/10/27 04:06:04;;;;;;;4.93;1.70;;;11.50;99.90;;;;;;5057776;28;20506;-62
2023/10/27 04:08:31;;;;;;;5.30;1.73;;;11.60;99.90;;;;;;5060046;28;20477;-63
2023/10/27 04:10:58;;;;;;;8.80;2.07;;;11.60;99.90;;;;;;5073370;28;20574;-63
2023/10/27 04:13:25;;;;;;;7.73;2.00;;;11.70;99.90;;;;;;5056495;28;21015;-63
2023/10/27 04:15:53;;;;;;;2.43;1.70;;;11.80;99.90;;;;;;5055227;28;20487;-62
2023/10/27 04:18:20;;;;;;;13.23;2.10;;;11.80;99.90;;;;;;5053146;28;20487;-63
2023/10/27 04:20:47;;;;;;;7.43;1.90;;;11.80;99.90;;;;;;5050447;28;21066;-62
2023/10/27 04:23:14;;;;;;;6.33;1.50;;;11.80;99.90;;;;;;5058516;28;20479;-62
2023/10/27 04:25:41;;;;;;;5.10;2.30;;;11.70;99.90;;;;;;5045357;28;20493;-64
2023/10/27 04:28:08;;;;;;;3.40;2.23;;;11.70;99.90;;;;;;5071345;28;20932;-62
2023/10/27 04:30:36;;;;;;;2.30;1.40;;;11.60;99.90;;;;;;5052548;28;21142;-63
2023/10/27 04:33:04;;;;;;;1.80;1.43;;;11.60;99.90;;;;;;5083402;28;20461;-62
2023/10/27 04:35:31;;;;;;;4.30;2.73;;;11.70;99.90;;;;;;5055311;28;20493;-63
2023/10/27 04:37:58;;;;;;;3.20;1.30;;;11.60;99.90;;;;;;5079695;28;20472;-62
2023/10/27 04:40:28;;;;;;;3.77;1.43;;;11.60;99.90;;;;;;5061579;28;21034;-63
2023/10/27 04:42:57;;;;;;;8.53;1.67;;;11.60;99.90;;;;;;5070438;28;20864;-63
2023/10/27 04:45:23;;;;;;;8.13;1.90;;;11.60;99.90;;;;;;5061138;28;20470;-62
2023/10/27 04:47:50;;;;;;;1.80;1.20;;;11.60;99.90;;;;;;5071348;28;20645;-65
2023/10/27 04:50:18;;;;;;;8.70;1.43;;;11.60;99.90;;;;;;5057406;28;20920;-64
2023/10/27 04:52:45;;;;;;;2.00;1.13;;;11.50;99.90;;;;;;5053945;28;21198;-64
2023/10/27 04:55:13;;;;;;;8.00;1.90;;;11.50;99.90;;;;;;5056622;28;20486;-66
2023/10/27 04:57:39;;;;;;;2.83;0.90;;;11.30;99.90;;;;;;5058052;28;20849;-64
2023/10/27 05:00:08;;;;;;;5.93;1.63;;;11.30;99.90;;;;;;5057910;28;20528;-65
2023/10/27 05:02:35;;;;;;;1.60;0.87;;;11.40;99.90;;;;;;5055648;28;20550;-62
2023/10/27 05:05:02;;;;;;;2.50;1.20;;;11.50;99.90;;;;;;5046941;28;20467;-63
2023/10/27 05:07:30;;;;;;;1.80;0.90;;;11.50;99.90;;;;;;5083962;28;20479;-63
2023/10/27 05:09:57;;;;;;;2.53;1.20;;;11.50;99.90;;;;;;5060733;28;20469;-64
2023/10/27 05:12:24;;;;;;;20.83;2.20;;;11.40;99.90;;;;;;5065965;28;20470;-63
2023/10/27 05:14:50;;;;;;;1.70;1.10;;;11.40;99.90;;;;;;5074652;28;20996;-64
2023/10/27 05:17:18;;;;;;;1.60;0.70;;;11.50;99.90;;;;;;5063739;28;20487;-64
2023/10/27 05:19:44;;;;;;;12.43;1.70;;;11.50;99.90;;;;;;5065041;28;20483;-63
2023/10/27 05:22:13;;;;;;;1.77;0.80;;;11.50;99.90;;;;;;5038882;28;20564;-64
2023/10/27 05:24:41;;;;;;;1.70;0.83;;;11.50;99.90;;;;;;5060528;28;20488;-63
2023/10/27 05:27:08;;;;;;;1.53;0.70;;;11.60;99.90;;;;;;5059788;28;20888;-65
2023/10/27 05:29:35;;;;;;;9.50;1.17;;;11.60;99.90;;;;;;5068132;28;20576;-66
2023/10/27 05:32:02;;;;;;;2.43;0.90;;;11.50;99.90;;;;;;5048022;28;21073;-66
2023/10/27 05:34:42;;;;;;;6.97;1.00;;;11.60;99.90;;;;;;5078878;28;20466;-65
2023/10/27 05:37:08;;;;;;;1.50;0.70;;;11.50;99.90;;;;;;5057597;28;20555;-66
2023/10/27 05:39:35;;;;;;;4.07;0.90;;;11.70;99.90;;;;;;5058342;28;20582;-65
2023/10/27 05:42:03;;;;;;;3.20;0.80;;;11.80;99.90;;;;;;5058749;28;20550;-65
2023/10/27 05:44:30;;;;;;;2.13;0.90;;;11.70;99.90;;;;;;5069305;28;20936;-65
2023/10/27 05:46:58;;;;;;;11.90;1.50;;;11.80;99.90;;;;;;5025403;28;20984;-66
2023/10/27 05:49:25;;;;;;;7.73;0.93;;;11.80;99.90;;;;;;5072109;28;21006;-66
2023/10/27 05:51:52;;;;;;;4.63;0.87;;;11.80;99.90;;;;;;5040131;28;21031;-67
2023/10/27 05:54:18;;;;;;;10.10;1.10;;;11.80;99.90;;;;;;5081458;28;20557;-64
2023/10/27 05:56:45;;;;;;;2.73;0.80;;;11.80;99.90;;;;;;5055999;28;20486;-65
2023/10/27 05:59:14;;;;;;;4.57;0.90;;;11.90;99.90;;;;;;5036378;28;20514;-65
2023/10/27 06:01:41;;;;;;;6.07;0.90;;;11.90;99.90;;;;;;5059600;28;21083;-65
2023/10/27 06:04:08;;;;;;;1.50;0.60;;;11.80;99.90;;;;;;5067237;28;20574;-65
2023/10/27 06:06:34;;;;;;;2.23;1.00;;;11.80;99.90;;;;;;5057623;28;20487;-65
2023/10/27 06:09:01;;;;;;;7.50;1.00;;;11.90;99.90;;;;;;5057468;28;21175;-65
2023/10/27 06:11:28;;;;;;;2.47;0.90;;;12.00;99.90;;;;;;5062150;28;20477;-68
2023/10/27 06:13:54;;;;;;;1.60;0.80;;;11.90;99.90;;;;;;5062276;28;20570;-64
2023/10/27 06:16:23;;;;;;;1.60;0.70;;;11.90;99.90;;;;;;5067690;28;20500;-67
2023/10/27 06:18:52;;;;;;;1.60;0.70;;;12.00;99.90;;;;;;5088465;28;20531;-66
2023/10/27 06:21:19;;;;;;;10.53;1.30;;;12.00;99.90;;;;;;5054525;28;20520;-66
2023/10/27 06:23:46;;;;;;;2.23;0.83;;;12.00;99.90;;;;;;5063297;28;20475;-65
2023/10/27 06:26:12;;;;;;;5.90;1.10;;;12.00;99.90;;;;;;5051999;28;20578;-65
2023/10/27 06:28:39;;;;;;;6.10;1.00;;;12.00;99.90;;;;;;5026501;28;20983;-65
2023/10/27 06:31:06;;;;;;;1.80;1.10;;;11.90;99.90;;;;;;5078979;28;20582;-66
2023/10/27 06:33:37;;;;;;;1.70;0.83;;;12.00;99.90;;;;;;5050066;28;20496;-66
2023/10/27 06:36:05;;;;;;;5.83;1.00;;;12.10;99.90;;;;;;5061720;28;20485;-66
2023/10/27 06:38:32;;;;;;;4.90;1.30;;;12.10;99.90;;;;;;5046660;28;20565;-64
2023/10/27 06:40:59;;;;;;;3.53;0.80;;;12.00;99.90;;;;;;5054790;28;20557;-64
2023/10/27 06:43:26;;;;;;;5.70;0.90;;;12.10;99.90;;;;;;5073188;28;20500;-62
2023/10/27 06:45:52;;;;;;;1.60;0.80;;;12.10;99.90;;;;;;5060780;28;21312;-63
2023/10/27 06:48:19;;;;;;;3.23;0.90;;;12.10;99.90;;;;;;5069847;28;20525;-62
2023/10/27 06:50:48;;;;;;;1.77;0.70;;;12.10;99.90;;;;;;5070098;28;20707;-63
2023/10/27 06:53:14;;;;;;;1.80;0.77;;;12.10;99.90;;;;;;5037341;28;20477;-61
2023/10/27 06:55:42;;;;;;;33.93;3.00;;;12.10;99.90;;;;;;5068155;28;20489;-63
2023/10/27 06:58:09;;;;;;;5.60;0.97;;;12.00;99.90;;;;;;5062197;28;20562;-63
2023/10/27 07:00:36;;;;;;;5.83;1.10;;;12.00;99.90;;;;;;5057088;28;20940;-65
2023/10/27 07:03:02;;;;;;;3.10;0.70;;;12.10;99.90;;;;;;5085186;28;20509;-64
2023/10/27 07:05:29;;;;;;;4.17;0.80;;;12.20;99.90;;;;;;5060592;28;20646;-67
2023/10/27 07:07:57;;;;;;;1.80;0.70;;;12.30;99.90;;;;;;5075874;28;20594;-65
2023/10/27 07:10:25;;;;;;;1.50;0.80;;;12.30;99.90;;;;;;5073334;28;20503;-64
2023/10/27 07:12:52;;;;;;;4.53;0.93;;;12.30;99.90;;;;;;5051878;28;20974;-64
2023/10/27 07:15:19;;;;;;;2.80;0.70;;;12.20;99.90;;;;;;5063141;28;20925;-67
2023/10/27 07:17:46;;;;;;;15.23;1.97;;;12.20;99.90;;;;;;5069435;28;20477;-64
2023/10/27 07:20:13;;;;;;;1.63;0.90;;;12.20;99.90;;;;;;5066301;28;20476;-65
2023/10/27 07:22:40;;;;;;;1.60;0.90;;;12.20;99.90;;;;;;5064121;28;20482;-65
2023/10/27 07:25:09;;;;;;;9.80;1.50;;;;;;;;;;5055876;28;20957;-65
2023/10/27 07:27:36;;;;;;;29.23;1.57;;;12.20;99.90;;;;;;5059607;28;20481;-65
2023/10/27 07:30:03;;;;;;;1.50;0.60;;;12.20;99.90;;;;;;5058574;28;20966;-64
2023/10/27 07:32:30;;;;;;;2.53;0.90;;;12.20;99.90;;;;;;5059861;28;20479;-65
2023/10/27 07:34:58;;;;;;;3.00;0.80;;;12.20;99.90;;;;;;5061244;28;20566;-64
2023/10/27 07:37:25;;;;;;;4.03;0.80;;;12.20;99.90;;;;;;5057706;28;21046;-64
2023/10/27 07:39:52;;;;;;;2.33;0.93;;;12.30;99.90;;;;;;5068296;28;20513;-64
2023/10/27 07:42:20;;;;;;;1.70;0.90;;;12.30;99.90;;;;;;5068212;28;20572;-66
2023/10/27 07:44:47;;;;;;;4.50;0.90;;;12.40;99.90;;;;;;5060490;28;20537;-65
2023/10/27 07:47:14;;;;;;;6.10;1.17;;;12.40;99.90;;;;;;5055706;28;20479;-64
2023/10/27 07:49:41;;;;;;;3.50;0.73;;;12.30;99.90;;;;;;5071440;28;21214;-64
2023/10/27 07:52:07;;;;;;;1.50;0.70;;;12.50;99.90;;;;;;5065525;28;20558;-66
2023/10/27 07:54:34;;;;;;;2.07;1.10;;;12.90;99.90;;;;;;5054576;28;20479;-65
2023/10/27 07:57:01;;;;;;;4.10;1.27;;;13.20;99.90;;;;;;5059644;28;20574;-65
2023/10/27 07:59:29;;;;;;;1.60;0.80;;;13.30;99.90;;;;;;5049161;28;20583;-64
2023/10/27 08:02:00;;;;;;;1.80;1.00;;;13.10;99.90;;;;;;5063618;28;20941;-65
2023/10/27 08:04:27;;;;;;;6.03;1.00;;;;;;;;;;5067638;28;20515;-64
2023/10/27 08:06:54;;;;;;;1.57;0.77;;;12.80;99.90;;;;;;5048921;28;20656;-65
2023/10/27 08:09:21;;;;;;;2.73;0.90;;;12.80;99.90;;;;;;5066662;28;20461;-64
2023/10/27 08:11:49;;;;;;;6.47;1.53;;;12.60;99.90;;;;;;5058915;28;20510;-67
2023/10/27 08:14:16;;;;;;;1.90;0.87;;;12.70;99.90;;;;;;5050269;28;20473;-65
2023/10/27 08:16:45;;;;;;;4.03;0.97;;;12.70;99.90;;;;;;5059003;28;20989;-65
2023/10/27 08:19:11;;;;;;;8.47;1.57;;;12.80;99.90;;;;;;5085050;28;20931;-64
2023/10/27 08:21:38;;;;;;;12.83;1.47;;;12.70;99.90;;;;;;5050276;28;21003;-64
2023/10/27 08:24:06;;;;;;;3.70;0.90;;;12.70;99.90;;;;;;5080826;28;20517;-66
2023/10/27 08:26:32;;;;;;;1.60;0.80;;;12.70;99.90;;;;;;5056363;28;20481;-65
2023/10/27 08:29:00;;;;;;;1.60;0.77;;;12.70;99.90;;;;;;5071403;28;20918;-66
2023/10/27 08:31:26;;;;;;;5.00;1.40;;;12.60;99.90;;;;;;5048740;28;20493;-66
2023/10/27 08:33:59;;;;;;;2.13;0.97;;;12.50;99.90;;;;;;5079317;28;21081;-65
2023/10/27 08:36:26;;;;;;;4.70;1.07;;;12.50;99.90;;;;;;5062795;28;20492;-66
2023/10/27 08:38:54;;;;;;;7.37;1.40;;;12.70;99.90;;;;;;5078940;28;20465;-66
2023/10/27 08:41:20;;;;;;;7.73;1.03;;;12.70;99.90;;;;;;5078707;28;20500;-66
2023/10/27 08:43:47;;;;;;;16.23;2.30;;;12.80;99.90;;;;;;5063357;28;21019;-65
2023/10/27 08:46:14;;;;;;;7.27;1.33;;;12.80;99.90;;;;;;5047511;28;20479;-65
2023/10/27 08:48:42;;;;;;;2.33;1.20;;;12.80;99.90;;;;;;5070189;28;20569;-64
2023/10/27 08:51:13;;;;;;;2.50;1.40;;;12.80;99.90;;;;;;5068926;28;20550;-64
2023/10/27 08:53:40;;;;;;;11.40;2.20;;;12.80;99.90;;;;;;5053544;28;20507;-67
2023/10/27 08:56:11;;;;;;;4.90;1.50;;;13.00;99.90;;;;;;5060288;28;20481;-65
2023/10/27 08:58:38;;;;;;;2.70;1.63;;;13.00;99.90;;;;;;5065783;28;20981;-65
2023/10/27 09:01:05;;;;;;;13.17;1.63;;;13.00;99.90;;;;;;5055540;28;20495;-63
2023/10/27 09:03:32;;;;;;;1.70;1.10;;;12.90;99.90;;;;;;5059464;28;20679;-69
2023/10/27 09:05:59;;;;;;;5.90;1.40;;;13.00;99.90;;;;;;5049805;28;20555;-66
2023/10/27 09:08:27;;;;;;;5.83;1.57;;;13.10;99.90;;;;;;5064211;28;20751;-66
2023/10/27 09:10:55;;;;;;;4.73;1.57;;;13.20;99.90;;;;;;5065324;28;20516;-65
2023/10/27 09:13:22;;;;;;;23.47;2.40;;;13.20;99.90;;;;;;5074438;28;20485;-66
2023/10/27 09:15:51;;;;;;;2.77;1.10;;;13.20;99.90;;;;;;5057237;28;20489;-69
2023/10/27 09:18:18;;;;;;;9.87;2.50;;;13.40;99.90;;;;;;5060949;28;20880;-67
2023/10/27 09:20:50;;;;;;;2.53;1.70;;;13.40;99.90;;;;;;5070110;28;20852;-72
2023/10/27 09:23:16;;;;;;;3.13;1.67;;;13.20;99.90;;;;;;5069062;28;20552;-68
2023/10/27 09:25:46;;;;;;;2.13;0.87;;;13.30;99.90;;;;;;5082259;28;20555;-67
2023/10/27 09:28:14;;;;;;;15.27;2.37;;;13.40;99.90;;;;;;5069878;28;20481;-66
2023/10/27 09:30:42;;;;;;;2.57;1.53;;;13.30;99.90;;;;;;5067716;28;20477;-66
2023/10/27 09:33:18;;;;;;;6.27;2.50;;;13.40;99.90;;;;;;5074131;28;20505;-67
2023/10/27 09:35:46;;;;;;;3.40;1.23;;;13.30;99.90;;;;;;5046460;28;20482;-65
2023/10/27 09:38:13;;;;;;;5.03;1.43;;;13.30;99.90;;;;;;5078774;28;21037;-65
2023/10/27 09:40:41;;;;;;;11.43;1.90;;;13.50;99.90;;;;;;5053577;28;21802;-64
2023/10/27 09:43:17;;;;;;;6.93;2.23;;;13.60;99.90;;;;;;5057500;28;20906;-65
2023/10/27 09:45:51;;;;;;;3.40;1.47;;;13.70;99.90;;;;;;5049340;28;20481;-64
2023/10/27 09:48:23;;;;;;;13.03;1.60;;;13.70;99.90;;;;;;5049966;28;20462;-63
2023/10/27 09:50:50;;;;;;;9.33;2.40;;;13.70;99.90;;;;;;5069629;28;20565;-61
2023/10/27 09:53:18;;;;;;;3.83;1.90;;;13.70;99.90;;;;;;5067612;28;20582;-64
2023/10/27 09:55:45;;;;;;;10.70;1.87;;;13.80;99.90;;;;;;5064472;28;20471;-62
2023/10/27 09:58:13;;;;;;;3.63;1.63;;;13.80;99.90;;;;;;5059076;28;20554;-61
2023/10/27 10:00:41;;;;;;;5.57;1.70;;;13.80;99.90;;;;;;5061754;28;20589;-66
2023/10/27 10:03:08;;;;;;;8.20;2.13;;;13.70;99.90;;;;;;5057578;28;20475;-63
2023/10/27 10:06:08;;;;;;;11.60;2.17;;;13.60;99.90;;;;;;5056245;28;20481;-62
2023/10/27 10:08:35;;;;;;;28.40;2.83;;;13.70;99.90;;;;;;5078033;28;20564;-63
2023/10/27 10:11:12;;;;;;;3.33;1.50;;;13.70;99.90;;;;;;5065031;28;20561;-64
2023/10/27 10:13:40;;;;;;;2.83;1.73;;;13.80;99.90;;;;;;5054418;28;20566;-65
2023/10/27 10:16:08;;;;;;;12.80;2.60;;;13.80;99.90;;;;;;5054968;28;20479;-65
2023/10/27 10:18:55;;;;;;;12.93;3.03;;;13.70;99.90;;;;;;5055050;28;20968;-65
2023/10/27 10:21:33;;;;;;;9.27;1.97;;;13.60;99.90;;;;;;5059421;28;20466;-65
2023/10/27 10:24:10;;;;;;;5.50;1.40;;;13.70;99.90;;;;;;5081911;28;20603;-64
2023/10/27 10:27:05;;;;;;;3.80;2.27;;;13.70;99.90;;;;;;5053986;28;20490;-65
2023/10/27 10:29:34;;;;;;;9.27;1.33;;;13.80;99.90;;;;;;5057173;28;20580;-67
2023/10/27 10:32:29;;;;;;;4.10;1.20;;;13.70;99.90;;;;;;5061370;28;20482;-66
2023/10/27 10:35:21;;;;;;;3.20;1.20;;;13.70;99.90;;;;;;5054940;28;20501;-67
2023/10/27 10:37:49;;;;;;;2.13;0.90;;;13.70;99.90;;;;;;5037899;28;20565;-66
2023/10/27 10:40:22;;;;;;;9.83;1.60;;;13.60;99.90;;;;;;5050267;28;20548;-65
2023/10/27 10:43:21;;;;;;;8.80;1.37;;;13.70;99.90;;;;;;5063582;28;20492;-66
2023/10/27 10:45:51;;;;;;;3.30;1.10;;;13.70;99.90;;;;;;5074357;28;20962;-66
2023/10/27 10:48:18;;;;;;;3.60;1.33;;;13.70;99.90;;;;;;5050846;28;20483;-66
2023/10/27 10:50:45;;;;;;;10.30;1.67;;;13.60;99.90;;;;;;5075581;28;20485;-65
2023/10/27 10:53:17;;;;;;;5.93;2.00;;;13.60;99.90;;;;;;5057446;28;20490;-65
2023/10/27 10:55:46;;;;;;;8.87;1.63;;;13.60;99.90;;;;;;5068712;28;20481;-66
2023/10/27 10:58:21;;;;;;;7.70;1.93;;;13.50;99.90;;;;;;5064678;28;20479;-66
2023/10/27 11:00:49;;;;;;;2.10;1.70;;;13.40;99.90;;;;;;5044185;28;20506;-65
2023/10/27 11:03:17;;;;;;;2.73;1.77;;;13.60;99.90;;;;;;5056637;28;21836;-66
2023/10/27 11:05:43;;;;;;;11.00;2.63;;;13.90;99.90;;;;;;5077342;28;20586;-66
2023/10/27 11:08:10;;;;;;;3.37;1.57;;;14.10;99.90;;;;;;5059191;28;20538;-65
2023/10/27 11:10:37;;;;;;;5.43;1.83;;;14.40;99.90;;;;;;5081537;28;20582;-65
2023/10/27 11:13:05;;;;;;;1.97;1.30;;;14.60;99.90;;;;;;5060074;28;20987;-65
2023/10/27 11:15:45;;;;;;;3.93;1.50;;;14.70;99.90;;;;;;5043812;28;20484;-64
2023/10/27 11:18:14;;;;;;;5.13;1.20;;;14.80;99.90;;;;;;5060889;28;21044;-64
2023/10/27 11:20:43;;;;;;;8.60;1.70;;;14.80;99.90;;;;;;5051867;28;20489;-67
2023/10/27 11:23:12;;;;;;;3.13;1.50;;;14.70;99.90;;;;;;5081487;28;20554;-66
2023/10/27 11:25:39;;;;;;;5.77;1.63;;;14.80;99.90;;;;;;5065144;28;20482;-65
2023/10/27 11:28:21;;;;;;;2.67;1.00;;;14.90;99.90;;;;;;5058171;28;21060;-64
2023/10/27 11:30:59;;;;;;;3.53;1.03;;;14.70;99.90;;;;;;5055812;28;20536;-63
2023/10/27 11:33:27;;;;;;;6.17;1.30;;;14.80;99.90;;;;;;5060489;28;20888;-63
2023/10/27 11:35:56;;;;;;;10.53;2.20;;;14.70;99.90;;;;;;5058503;28;21049;-64
2023/10/27 11:38:24;;;;;;;25.97;2.27;;;14.80;99.90;;;;;;5061160;28;20888;-61
2023/10/27 11:40:51;;;;;;;7.30;1.87;;;14.90;99.90;;;;;;5053911;28;20502;-62
2023/10/27 11:43:18;;;;;;;8.03;1.43;;;14.80;99.90;;;;;;5062697;28;21181;-62
2023/10/27 11:45:46;;;;;;;16.77;2.87;;;14.90;99.90;;;;;;5074126;28;20575;-62
2023/10/27 11:48:13;;;;;;;9.40;1.70;;;14.90;99.90;;;;;;5062450;28;20936;-62
2023/10/27 11:50:42;;;;;;;1.80;1.00;;;14.90;99.90;;;;;;5057364;28;20483;-62
2023/10/27 11:53:08;;;;;;;5.60;1.90;;;15.00;99.90;;;;;;5054505;28;20551;-62
2023/10/27 11:55:35;;;;;;;5.90;1.73;;;15.00;99.90;;;;;;5078340;28;20556;-62
2023/10/27 11:58:02;;;;;;;2.73;1.00;;;15.00;99.90;;;;;;5069608;28;20476;-61
2023/10/27 12:00:29;;;;;;;4.33;1.50;;;15.20;99.90;;;;;;5055576;28;20966;-62
2023/10/27 12:03:00;;;;;;;2.13;0.90;;;15.30;99.90;;;;;;5055961;28;20823;-62
2023/10/27 12:05:27;;;;;;;42.40;3.60;;;15.40;99.90;;;;;;5057776;28;20911;-63
2023/10/27 12:07:55;;;;;;;2.00;1.07;;;15.40;99.90;;;;;;5068150;28;20497;-62
2023/10/27 12:10:22;;;;;;;5.60;1.60;;;15.40;99.90;;;;;;5083027;28;20512;-63
2023/10/27 12:12:49;;;;;;;10.40;1.43;;;15.30;99.90;;;;;;5049041;28;20512;-63
2023/10/27 12:15:16;;;;;;;4.47;1.03;;;15.20;99.90;;;;;;5073840;28;20492;-62
2023/10/27 12:17:44;;;;;;;2.10;0.90;;;15.10;99.90;;;;;;5071277;28;20501;-62
2023/10/27 12:20:12;;;;;;;2.17;0.70;;;15.10;99.90;;;;;;5059168;28;20482;-61
2023/10/27 12:22:44;;;;;;;1.53;0.60;;;15.20;99.90;;;;;;5058730;28;21016;-62
2023/10/27 12:25:12;;;;;;;1.70;0.90;;;15.20;99.90;;;;;;5040547;28;20971;-62
2023/10/27 12:27:39;;;;;;;9.93;1.10;;;15.20;99.90;;;;;;5080806;28;20533;-61
2023/10/27 12:30:08;;;;;;;3.50;0.70;;;15.10;99.90;;;;;;5061007;28;20483;-63
2023/10/27 12:32:37;;;;;;;2.00;0.90;;;;;;;;;;5036836;28;20452;-61
2023/10/27 12:35:04;;;;;;;2.90;1.07;;;14.90;99.90;;;;;;5080049;28;20876;-62
2023/10/27 12:37:33;;;;;;;1.83;1.20;;;14.90;99.90;;;;;;5058457;28;21079;-62
2023/10/27 12:40:00;;;;;;;21.50;1.87;;;15.20;99.90;;;;;;5076876;28;20552;-62
2023/10/27 12:42:29;;;;;;;2.10;0.80;;;15.20;99.90;;;;;;5072637;28;20490;-62
2023/10/27 12:44:56;;;;;;;2.13;1.20;;;15.40;99.90;;;;;;5084733;28;20536;-62
2023/10/27 12:47:23;;;;;;;1.73;0.80;;;15.60;99.90;;;;;;5078184;28;20534;-64
2023/10/27 12:49:50;;;;;;;3.30;0.80;;;15.60;99.90;;;;;;5061949;28;21030;-63